Time;durP1;ratioP1;P1;durP2;ratioP2;P2;SDS_P1;SDS_P2;PMS_P1;PMS_P2;Temp;Humidity;BMP_temperature;BMP_pressure;BME280_temperature;BME280_humidity;BME280_pressure;Samples;Min_cycle;Max_cycle;Signal;HPM_P1;HPM_P2
2023/03/27 00:00:41;;;;;;;15.07;4.63;;;;;;;4.99;100.00;99314.03;5062285;28;20330;-58
2023/03/27 00:03:07;;;;;;;14.47;5.43;;;;;;;5.00;100.00;99313.97;5056977;28;20209;-59
2023/03/27 00:05:32;;;;;;;17.27;5.37;;;;;;;4.94;100.00;99332.06;5068954;28;20210;-58
2023/03/27 00:08:00;;;;;;;21.37;4.63;;;;;;;4.84;100.00;99339.28;5070497;28;20174;-59
2023/03/27 00:10:26;;;;;;;15.70;4.10;;;;;;;4.82;100.00;99351.25;5058545;28;20290;-60
2023/03/27 00:12:51;;;;;;;15.20;3.80;;;;;;;4.78;100.00;99348.94;5069837;28;20224;-58
2023/03/27 00:15:17;;;;;;;13.13;3.83;;;;;;;4.76;100.00;99356.63;5063000;28;20624;-57
2023/03/27 00:17:48;;;;;;;11.23;3.50;;;;;;;4.77;100.00;99365.09;5070910;28;20194;-57
2023/03/27 00:20:15;;;;;;;13.03;3.70;;;;;;;4.66;100.00;99365.56;5060584;28;20199;-58
2023/03/27 00:22:41;;;;;;;7.80;3.00;;;;;;;4.64;100.00;99377.50;5079573;28;20224;-59
2023/03/27 00:25:08;;;;;;;11.97;3.80;;;;;;;4.58;100.00;99372.69;5064159;28;20200;-59
2023/03/27 00:27:34;;;;;;;10.30;3.03;;;;;;;4.45;100.00;99385.09;5067166;28;20176;-58
2023/03/27 00:30:00;;;;;;;13.93;3.33;;;;;;;4.41;100.00;99399.66;5069971;28;20184;-59
2023/03/27 00:32:26;;;;;;;10.63;3.13;;;;;;;4.33;100.00;99404.25;5063489;28;20238;-60
2023/03/27 00:34:51;;;;;;;10.87;2.83;;;;;;;4.35;100.00;99416.03;5070654;28;20264;-62
2023/03/27 00:37:16;;;;;;;11.33;2.73;;;;;;;4.30;100.00;99425.56;5071697;28;20632;-59
2023/03/27 00:39:42;;;;;;;6.97;2.90;;;;;;;4.27;100.00;99423.16;5069224;28;20177;-61
2023/03/27 00:42:12;;;;;;;13.00;3.43;;;;;;;4.19;100.00;99443.81;5075950;28;20357;-59
2023/03/27 00:44:38;;;;;;;10.60;2.37;;;;;;;3.99;100.00;99436.09;5067349;28;20311;-58
2023/03/27 00:47:04;;;;;;;13.40;3.30;;;;;;;3.86;100.00;99444.19;5071698;28;20301;-59
2023/03/27 00:49:34;;;;;;;12.30;2.80;;;;;;;3.76;100.00;99458.16;5070341;28;20205;-59
2023/03/27 00:52:03;;;;;;;18.43;2.80;;;;;;;3.78;100.00;99468.28;5062520;28;20251;-59
2023/03/27 00:54:34;;;;;;;11.93;3.17;;;;;;;3.67;100.00;99473.72;5066779;28;21151;-59
2023/03/27 00:57:05;;;;;;;8.90;2.83;;;;;;;3.50;100.00;99482.81;5069465;28;20267;-59
2023/03/27 00:59:34;;;;;;;11.63;2.50;;;;;;;3.47;100.00;99482.91;5070040;28;20191;-60
2023/03/27 01:02:02;;;;;;;12.30;2.83;;;;;;;3.34;100.00;99490.13;5057340;28;20216;-60
2023/03/27 01:04:27;;;;;;;9.53;2.60;;;;;;;3.25;100.00;99497.25;5069671;28;20545;-59
2023/03/27 01:06:54;;;;;;;14.30;2.73;;;;;;;3.21;100.00;99499.91;5070575;28;20173;-59
2023/03/27 01:09:20;;;;;;;8.97;2.47;;;;;;;3.11;100.00;99502.81;5069470;28;20225;-59
2023/03/27 01:11:58;;;;;;;9.40;2.83;;;;;;;3.06;100.00;99506.34;5061698;28;20232;-59
2023/03/27 01:14:40;;;;;;;10.57;2.70;;;;;;;3.09;100.00;99515.56;5068393;28;20176;-59
2023/03/27 01:17:33;;;;;;;7.77;2.00;;;;;;;3.02;100.00;99525.09;5070433;28;20211;-61
2023/03/27 01:20:29;;;;;;;7.13;2.60;;;;;;;2.86;100.00;99532.38;5073305;28;20192;-59
2023/03/27 01:23:30;;;;;;;11.00;2.47;;;;;;;2.79;100.00;99547.84;5040648;28;20221;-59
2023/03/27 01:26:07;;;;;;;5.17;1.97;;;;;;;2.64;100.00;99564.41;5052498;28;20226;-59
2023/03/27 01:28:44;;;;;;;6.67;2.33;;;;;;;2.52;100.00;99565.63;5055056;28;20190;-59
2023/03/27 01:31:50;;;;;;;8.60;2.43;;;;;;;2.46;100.00;99571.69;5039259;28;20305;-60
2023/03/27 01:34:35;;;;;;;15.50;2.93;;;;;;;2.33;100.00;99588.16;5054638;28;20495;-61
2023/03/27 01:37:23;;;;;;;9.40;2.87;;;;;;;2.28;100.00;99574.78;5060642;28;20644;-61
2023/03/27 01:40:09;;;;;;;8.10;2.13;;;;;;;2.33;100.00;99590.69;5043302;28;20229;-59
2023/03/27 01:42:41;;;;;;;9.13;3.10;;;;;;;2.31;100.00;99588.19;5041461;28;20253;-60
2023/03/27 01:45:24;;;;;;;11.30;2.27;;;;;;;2.18;100.00;99597.84;5057002;28;20185;-59
2023/03/27 01:48:02;;;;;;;7.30;2.10;;;;;;;2.15;100.00;99605.56;5062802;28;20252;-59
2023/03/27 01:50:35;;;;;;;9.70;2.67;;;;;;;2.10;100.00;99607.41;5065186;28;20683;-59
2023/03/27 01:53:05;;;;;;;5.87;2.50;;;;;;;2.06;100.00;99614.28;5061593;28;20232;-60
2023/03/27 01:55:35;;;;;;;13.30;2.13;;;;;;;2.06;100.00;99619.34;5072040;28;20232;-61
2023/03/27 01:58:06;;;;;;;8.07;2.67;;;;;;;2.05;100.00;99635.44;5074547;28;20206;-59
2023/03/27 02:00:34;;;;;;;7.73;2.20;;;;;;;2.07;100.00;99626.09;5063759;28;20231;-60
2023/03/27 02:03:06;;;;;;;7.97;2.40;;;;;;;2.05;100.00;99637.16;5084421;28;20294;-60
2023/03/27 02:05:37;;;;;;;10.17;2.63;;;;;;;2.05;100.00;99639.69;5073046;28;20181;-60
2023/03/27 02:08:10;;;;;;;8.97;2.07;;;;;;;2.03;100.00;99634.63;5072317;28;20231;-58
2023/03/27 02:10:40;;;;;;;9.80;2.33;;;;;;;2.03;100.00;99633.81;5079580;28;20229;-59
2023/03/27 02:13:52;;;;;;;7.93;2.30;;;;;;;1.93;100.00;99646.75;5058470;28;20224;-61
2023/03/27 02:16:27;;;;;;;7.73;2.40;;;;;;;1.96;100.00;99639.91;5061367;28;20277;-60
2023/03/27 02:19:00;;;;;;;11.80;2.83;;;;;;;1.96;100.00;99639.91;5073081;28;20268;-59
2023/03/27 02:21:26;;;;;;;12.63;2.77;;;;;;;1.97;100.00;99644.13;5073512;28;20299;-59
2023/03/27 02:23:52;;;;;;;9.87;2.80;;;;;;;2.00;100.00;99647.41;5066996;28;20569;-59
2023/03/27 02:26:17;;;;;;;9.40;2.43;;;;;;;2.04;100.00;99648.16;5074083;28;20184;-59
2023/03/27 02:28:58;;;;;;;13.20;2.70;;;;;;;2.03;100.00;99659.19;5071600;28;20247;-59
2023/03/27 02:32:04;;;;;;;10.03;2.40;;;;;;;2.01;100.00;99659.22;5057785;28;20237;-59
2023/03/27 02:35:00;;;;;;;10.97;2.50;;;;;;;1.98;100.00;99666.09;5062015;28;20771;-59
2023/03/27 02:37:28;;;;;;;6.63;1.77;;;;;;;1.92;100.00;99670.44;5070051;28;20600;-59
2023/03/27 02:40:03;;;;;;;5.50;2.27;;;;;;;1.88;100.00;99691.66;5070401;28;20200;-60
2023/03/27 02:43:10;;;;;;;9.27;2.10;;;;;;;1.89;100.00;99689.97;5068132;28;20231;-60
2023/03/27 02:45:47;;;;;;;13.83;2.60;;;;;;;1.82;100.00;99698.63;5062216;28;20605;-61
2023/03/27 02:48:17;;;;;;;9.30;2.40;;;;;;;1.78;100.00;99702.94;5073319;28;20212;-60
2023/03/27 02:50:54;;;;;;;13.00;2.53;;;;;;;1.72;100.00;99695.47;5060820;28;20765;-60
2023/03/27 02:53:22;;;;;;;11.27;2.77;;;;;;;1.75;100.00;99705.56;5071168;28;20611;-59
2023/03/27 02:55:56;;;;;;;7.83;2.37;;;;;;;1.68;100.00;99709.94;5072298;28;20224;-59
2023/03/27 02:58:29;;;;;;;8.17;2.30;;;;;;;1.72;100.00;99715.75;5073423;28;20189;-70
2023/03/27 03:00:58;;;;;;;7.40;1.40;;;;;;;1.70;100.00;99709.88;5057574;28;20251;-59
2023/03/27 03:03:34;;;;;;;8.53;2.33;;;;;;;1.65;100.00;99711.69;5069589;28;20256;-60
2023/03/27 03:06:05;;;;;;;7.83;2.47;;;;;;;1.62;100.00;99717.69;5070774;28;20178;-59
2023/03/27 03:08:37;;;;;;;11.93;2.37;;;;;;;1.66;100.00;99731.94;5072917;28;20230;-61
2023/03/27 03:11:06;;;;;;;11.43;1.87;;;;;;;1.62;100.00;99725.28;5068418;28;20375;-59
2023/03/27 03:13:33;;;;;;;11.70;2.40;;;;;;;1.60;100.00;99738.00;5071477;28;20190;-59
2023/03/27 03:15:58;;;;;;;9.60;2.00;;;;;;;1.61;100.00;99747.28;5063630;28;20299;-58
2023/03/27 03:18:24;;;;;;;8.87;2.07;;;;;;;1.62;100.00;99763.31;5069700;28;20223;-59
2023/03/27 03:20:52;;;;;;;7.00;2.37;;;;;;;1.64;100.00;99765.81;5061523;28;20678;-59
2023/03/27 03:23:20;;;;;;;8.83;2.30;;;;;;;1.58;100.00;99770.16;5063061;28;20204;-59
2023/03/27 03:25:46;;;;;;;10.17;1.87;;;;;;;1.52;100.00;99766.94;5070459;28;20187;-58
2023/03/27 03:28:12;;;;;;;12.13;2.30;;;;;;;1.51;100.00;99773.69;5071313;28;20173;-59
2023/03/27 03:30:40;;;;;;;10.50;2.03;;;;;;;1.53;100.00;99774.50;5042913;28;20237;-59
2023/03/27 03:33:06;;;;;;;9.83;3.17;;;;;;;1.53;100.00;99786.34;5075305;28;20287;-60
2023/03/27 03:35:33;;;;;;;6.43;2.07;;;;;;;1.58;100.00;99792.16;5071808;28;20182;-60
2023/03/27 03:37:59;;;;;;;12.70;2.37;;;;;;;1.52;100.00;99798.19;5071789;28;20539;-60
2023/03/27 03:40:25;;;;;;;12.53;2.50;;;;;;;1.49;100.00;99795.72;5063233;28;20236;-59
2023/03/27 03:42:51;;;;;;;12.43;3.93;;;;;;;1.50;100.00;99805.00;5070278;28;20209;-59
2023/03/27 03:45:18;;;;;;;6.10;1.80;;;;;;;1.50;100.00;99816.81;5074294;28;20547;-60
2023/03/27 03:47:44;;;;;;;7.73;2.00;;;;;;;1.52;100.00;99831.13;5071028;28;20273;-60
2023/03/27 03:50:11;;;;;;;12.80;2.23;;;;;;;1.53;100.00;99825.19;5060946;28;20217;-60
2023/03/27 03:52:36;;;;;;;11.70;3.07;;;;;;;1.52;100.00;99832.84;5086165;28;20642;-60
2023/03/27 03:55:05;;;;;;;5.20;1.93;;;;;;;1.51;100.00;99842.13;5071225;28;20265;-59
2023/03/27 03:57:31;;;;;;;8.07;2.00;;;;;;;1.43;100.00;99844.84;5070805;28;20187;-61
2023/03/27 03:59:59;;;;;;;9.07;2.23;;;;;;;1.46;100.00;99861.69;5067791;28;20813;-60
2023/03/27 04:02:28;;;;;;;13.60;2.47;;;;;;;1.48;100.00;99871.78;5057591;28;20237;-59
2023/03/27 04:04:57;;;;;;;7.07;1.70;;;;;;;1.40;100.00;99879.56;5070076;28;20180;-59
2023/03/27 04:07:30;;;;;;;10.33;2.40;;;;;;;1.29;100.00;99879.78;5070446;28;20178;-58
2023/03/27 04:09:57;;;;;;;11.07;2.37;;;;;;;1.25;100.00;99889.16;5068741;28;20676;-59
2023/03/27 04:12:22;;;;;;;6.63;2.10;;;;;;;1.31;100.00;99898.31;5060050;28;20229;-60
2023/03/27 04:14:47;;;;;;;9.03;2.33;;;;;;;1.26;100.00;99898.41;5060886;28;20631;-61
2023/03/27 04:17:12;;;;;;;10.53;2.90;;;;;;;1.22;100.00;99895.97;5065506;28;20177;-60
2023/03/27 04:19:40;;;;;;;6.43;2.03;;;;;;;1.21;100.00;99901.91;5071048;28;20189;-60
2023/03/27 04:22:06;;;;;;;12.70;2.53;;;;;;;1.18;100.00;99910.41;5057896;28;20225;-60
2023/03/27 04:24:31;;;;;;;7.50;2.07;;;;;;;1.18;100.00;99918.00;5070824;28;20214;-61
2023/03/27 04:27:03;;;;;;;8.93;2.37;;;;;;;1.25;100.00;99913.63;5071420;28;20582;-60
2023/03/27 04:29:33;;;;;;;14.87;2.47;;;;;;;1.26;100.00;99918.66;5069310;28;20192;-58
2023/03/27 04:31:58;;;;;;;8.97;2.00;;;;;;;1.22;100.00;99924.66;5062052;28;20274;-65
2023/03/27 04:34:24;;;;;;;9.77;2.10;;;;;;;1.26;100.00;99931.34;5071091;28;20189;-59
2023/03/27 04:36:50;;;;;;;7.33;2.10;;;;;;;1.26;100.00;99944.00;5071518;28;20216;-58
2023/03/27 04:39:16;;;;;;;16.53;3.00;;;;;;;1.29;100.00;99951.56;5069126;28;20188;-59
2023/03/27 04:41:47;;;;;;;7.23;2.00;;;;;;;1.27;100.00;99955.81;5051957;28;20295;-59
2023/03/27 04:44:13;;;;;;;8.47;2.20;;;;;;;1.22;100.00;99972.81;5061690;28;20208;-60
2023/03/27 04:46:38;;;;;;;9.27;2.07;;;;;;;1.24;100.00;99972.78;5071221;28;20524;-59
2023/03/27 04:49:04;;;;;;;8.27;2.00;;;;;;;1.28;100.00;99974.41;5070693;28;20682;-60
2023/03/27 04:51:31;;;;;;;10.77;1.93;;;;;;;1.24;100.00;99987.97;5061719;28;20240;-59
2023/03/27 04:53:56;;;;;;;8.10;2.00;;;;;;;1.27;100.00;99996.38;5073377;28;20699;-60
2023/03/27 04:56:22;;;;;;;11.70;2.60;;;;;;;1.17;100.00;99992.34;5070446;28;20256;-64
2023/03/27 04:58:47;;;;;;;11.10;2.43;;;;;;;1.16;100.00;99999.97;5071242;28;20187;-59
2023/03/27 05:01:13;;;;;;;12.57;2.33;;;;;;;1.14;100.00;100005.03;5068363;28;20296;-58
2023/03/27 05:03:39;;;;;;;13.13;2.47;;;;;;;1.25;100.00;100004.88;5075214;28;20208;-60
2023/03/27 05:06:05;;;;;;;8.00;2.80;;;;;;;1.12;100.00;100002.53;5069342;28;20182;-60
2023/03/27 05:08:31;;;;;;;8.57;2.00;;;;;;;1.09;100.00;100007.69;5069502;28;20256;-60
2023/03/27 05:10:57;;;;;;;9.60;2.40;;;;;;;1.09;100.00;100001.75;5061441;28;20311;-60
2023/03/27 05:13:22;;;;;;;11.07;2.30;;;;;;;1.09;100.00;100014.44;5079154;28;20188;-61
2023/03/27 05:15:47;;;;;;;9.53;2.70;;;;;;;1.06;100.00;100015.31;5066840;28;20191;-59
2023/03/27 05:18:13;;;;;;;8.60;1.83;;;;;;;1.09;100.00;100025.41;5071230;28;20245;-60
2023/03/27 05:20:38;;;;;;;13.33;2.20;;;;;;;1.15;100.00;100029.53;5064338;28;20520;-61
2023/03/27 05:23:03;;;;;;;10.37;2.13;;;;;;;1.17;100.00;100032.88;5081414;28;20196;-60
2023/03/27 05:25:30;;;;;;;7.83;2.30;;;;;;;1.29;100.00;100039.44;5071173;28;20193;-60
2023/03/27 05:27:56;;;;;;;11.20;2.57;;;;;;;1.24;100.00;100044.59;5067946;28;20191;-60
2023/03/27 05:30:23;;;;;;;8.80;2.60;;;;;;;1.28;100.00;100046.19;5059358;28;20244;-59
2023/03/27 05:32:50;;;;;;;14.03;3.00;;;;;;;1.40;100.00;100047.69;5063432;28;20175;-60
2023/03/27 05:35:17;;;;;;;8.23;2.10;;;;;;;1.41;100.00;100053.59;5069730;28;20187;-59
2023/03/27 05:37:49;;;;;;;9.37;2.53;;;;;;;1.39;100.00;100061.22;5056597;28;20191;-60
2023/03/27 05:40:15;;;;;;;8.03;2.27;;;;;;;1.32;100.00;100056.28;5059303;28;20210;-60
2023/03/27 05:42:43;;;;;;;10.57;2.70;;;;;;;1.26;100.00;100062.28;5078624;28;20218;-60
2023/03/27 05:45:09;;;;;;;11.50;3.10;;;;;;;1.18;100.00;100064.97;5065233;28;20250;-60
2023/03/27 05:47:43;;;;;;;12.80;2.90;;;;;;;1.17;100.00;100070.88;5069643;28;20186;-59
2023/03/27 05:50:09;;;;;;;11.87;3.00;;;;;;;1.16;100.00;100073.44;5059283;28;20216;-62
2023/03/27 05:52:34;;;;;;;7.93;2.37;;;;;;;1.13;100.00;100087.84;5058869;28;20246;-60
2023/03/27 05:54:59;;;;;;;12.57;2.93;;;;;;;1.10;100.00;100092.97;5069030;28;20177;-59
2023/03/27 05:57:25;;;;;;;6.40;2.27;;;;;;;1.06;100.00;100096.38;5071359;28;20264;-58
2023/03/27 05:59:50;;;;;;;9.23;3.13;;;;;;;1.13;100.00;100102.22;5069531;28;20816;-59
2023/03/27 06:02:17;;;;;;;11.97;2.60;;;;;;;1.23;100.00;100110.50;5071720;28;20318;-62
2023/03/27 06:04:42;;;;;;;13.83;2.83;;;;;;;1.21;100.00;100114.75;5070254;28;20639;-59
2023/03/27 06:07:07;;;;;;;14.03;3.17;;;;;;;1.23;100.00;100123.19;5074014;28;20263;-59
2023/03/27 06:09:35;;;;;;;7.67;2.90;;;;;;;1.28;100.00;100123.94;5073320;28;20303;-59
2023/03/27 06:12:00;;;;;;;9.40;3.67;;;;;;;1.35;100.00;100147.47;5074151;28;20226;-60
2023/03/27 06:14:25;;;;;;;8.23;2.60;;;;;;;1.41;100.00;100138.06;5073425;28;20569;-58
2023/03/27 06:16:50;;;;;;;11.47;3.00;;;;;;;1.51;100.00;100148.88;5074073;28;20583;-60
2023/03/27 06:19:16;;;;;;;11.20;4.27;;;;;;;1.60;100.00;100151.28;5072879;28;20193;-59
2023/03/27 06:21:41;;;;;;;8.00;3.17;;;;;;;1.64;100.00;100156.28;5075474;28;20224;-62
2023/03/27 06:24:07;;;;;;;20.03;3.63;;;;;;;1.66;100.00;100154.56;5064726;28;20207;-60
2023/03/27 06:26:32;;;;;;;8.90;3.03;;;;;;;1.78;100.00;100164.50;5071753;28;20661;-61
2023/03/27 06:28:58;;;;;;;10.50;2.53;;;;;;;1.86;100.00;100171.97;5071669;28;20184;-60
2023/03/27 06:31:24;;;;;;;19.97;3.17;;;;;;;2.06;100.00;100174.16;5073457;28;20246;-60
2023/03/27 06:33:49;;;;;;;7.20;2.50;;;;;;;2.00;100.00;100176.81;5078395;28;20217;-59
2023/03/27 06:36:15;;;;;;;9.63;3.30;;;;;;;2.10;100.00;100178.34;5071339;28;20461;-60
2023/03/27 06:38:40;;;;;;;9.67;3.37;;;;;;;2.21;100.00;100180.69;5072866;28;20189;-59
2023/03/27 06:41:06;;;;;;;11.03;3.47;;;;;;;2.26;100.00;100179.72;5070497;28;20980;-61
2023/03/27 06:43:31;;;;;;;12.17;2.93;;;;;;;2.42;100.00;100179.44;5070692;28;21889;-61
2023/03/27 06:45:56;;;;;;;14.97;2.77;;;;;;;2.51;100.00;100186.03;5073076;28;20187;-59
2023/03/27 06:48:23;;;;;;;9.27;3.20;;;;;;;2.87;100.00;100193.75;5070173;28;20188;-60
2023/03/27 06:50:50;;;;;;;17.20;3.73;;;;;;;3.59;100.00;100200.63;5067248;28;20238;-58
2023/03/27 06:53:16;;;;;;;14.63;3.20;;;;;;;3.86;100.00;100192.31;5059416;28;20196;-60
2023/03/27 06:55:43;;;;;;;12.40;2.97;;;;;;;4.09;100.00;100206.16;5070387;28;20184;-59
2023/03/27 06:58:12;;;;;;;10.47;2.77;;;;;;;4.97;100.00;100220.75;5067418;28;20180;-57
2023/03/27 07:00:39;;;;;;;10.33;2.63;;;;;;;6.08;100.00;100209.63;5047583;28;20250;-59
2023/03/27 07:03:07;;;;;;;7.57;2.37;;;;;;;7.31;91.79;100212.88;5049224;28;20203;-58
2023/03/27 07:05:35;;;;;;;9.33;2.30;;;;;;;7.85;81.80;100211.53;5047594;28;20220;-60
2023/03/27 07:08:02;;;;;;;7.40;2.57;;;;;;;7.91;79.58;100229.22;5076204;28;20698;-63
2023/03/27 07:10:27;;;;;;;7.93;1.80;;;;;;;8.09;74.24;100226.78;5045589;28;20235;-60
2023/03/27 07:12:53;;;;;;;8.90;2.07;;;;;;;7.70;76.68;100236.03;5070725;28;20224;-59
2023/03/27 07:15:20;;;;;;;8.57;2.60;;;;;;;8.92;76.06;100248.00;5043450;28;20188;-59
2023/03/27 07:17:57;;;;;;;9.83;2.87;;;;;;;9.86;63.22;100260.72;5060347;28;20232;-58
2023/03/27 07:20:26;;;;;;;11.03;2.77;;;;;;;10.45;57.88;100253.50;5042464;28;20657;-57
2023/03/27 07:22:56;;;;;;;8.73;2.80;;;;;;;11.01;55.71;100255.75;5071392;28;20579;-59
2023/03/27 07:25:26;;;;;;;11.97;3.30;;;;;;;10.29;57.90;100265.47;5071499;28;20192;-58
2023/03/27 07:27:51;;;;;;;11.00;2.70;;;;;;;10.83;55.76;100267.88;5070513;28;20661;-58
2023/03/27 07:30:16;;;;;;;7.13;2.57;;;;;;;12.08;51.48;100261.00;5032091;28;20173;-60
2023/03/27 07:32:43;;;;;;;7.33;2.73;;;;;;;12.80;48.57;100274.81;5071498;28;20180;-60
2023/03/27 07:35:10;;;;;;;10.03;2.43;;;;;;;13.19;46.71;100276.69;5070333;28;20541;-60
2023/03/27 07:37:36;;;;;;;9.10;2.47;;;;;;;12.06;46.38;100280.03;5070396;28;20173;-56
2023/03/27 07:40:05;;;;;;;9.27;2.20;;;;;;;12.52;48.60;100282.47;5068849;28;20180;-59
2023/03/27 07:42:32;;;;;;;11.30;2.50;;;;;;;12.45;47.00;100285.53;5067301;28;20209;-58
2023/03/27 07:44:58;;;;;;;9.43;2.87;;;;;;;12.10;47.29;100284.09;5068766;28;20520;-58
2023/03/27 07:47:24;;;;;;;13.80;2.60;;;;;;;10.96;51.13;100292.03;5070585;28;20192;-59
2023/03/27 07:49:49;;;;;;;8.27;2.53;;;;;;;11.18;51.97;100297.78;5072350;28;20173;-58
2023/03/27 07:52:14;;;;;;;8.33;2.40;;;;;;;11.32;48.99;100290.13;5067302;28;20727;-58
2023/03/27 07:54:39;;;;;;;13.10;2.83;;;;;;;11.18;49.57;100296.03;5068125;28;21000;-58
2023/03/27 07:57:05;;;;;;;5.20;2.00;;;;;;;10.29;50.28;100289.41;5072264;28;20184;-59
2023/03/27 07:59:31;;;;;;;8.47;2.63;;;;;;;10.91;51.05;100293.19;5072260;28;20534;-59
2023/03/27 08:01:56;;;;;;;9.70;2.40;;;;;;;11.77;49.33;100306.53;5059556;28;20348;-67
2023/03/27 08:04:22;;;;;;;8.57;2.90;;;;;;;12.82;45.90;100309.13;5072446;28;20287;-63
2023/03/27 08:06:50;;;;;;;8.30;2.47;;;;;;;12.48;45.07;100311.13;5072226;28;20177;-59
2023/03/27 08:09:16;;;;;;;5.03;1.97;;;;;;;12.26;44.03;100317.56;5070229;28;20220;-59
2023/03/27 08:11:43;;;;;;;6.83;1.83;;;;;;;12.03;44.16;100324.03;5073683;28;20878;-58
2023/03/27 08:14:08;;;;;;;6.50;2.07;;;;;;;12.16;43.98;100319.03;5066732;28;20246;-60
2023/03/27 08:16:35;;;;;;;8.30;2.87;;;;;;;12.31;44.80;100327.63;5061658;28;20630;-59
2023/03/27 08:19:02;;;;;;;9.57;2.43;;;;;;;13.07;45.16;100322.22;5071507;28;20670;-60
2023/03/27 08:21:30;;;;;;;8.03;2.20;;;;;;;13.36;44.42;100329.06;5063196;28;20219;-60
2023/03/27 08:23:57;;;;;;;6.73;2.37;;;;;;;12.43;46.10;100325.16;5075043;28;20516;-58
2023/03/27 08:26:23;;;;;;;6.50;2.07;;;;;;;12.73;46.80;100329.41;5069828;28;20598;-59
2023/03/27 08:28:52;;;;;;;7.77;2.73;;;;;;;12.66;47.24;100329.88;5066240;28;20269;-58
2023/03/27 08:31:18;;;;;;;7.17;2.50;;;;;;;11.33;49.38;100340.72;5068020;28;20227;-57
2023/03/27 08:33:43;;;;;;;6.07;2.33;;;;;;;10.04;53.00;100348.94;5075315;28;20228;-60
2023/03/27 08:36:10;;;;;;;11.00;2.63;;;;;;;9.47;54.72;100346.47;5067510;28;20543;-60
2023/03/27 08:38:38;;;;;;;6.50;2.20;;;;;;;10.45;54.80;100350.41;5069292;28;20196;-60
2023/03/27 08:41:05;;;;;;;7.17;2.13;;;;;;;10.26;57.40;100353.84;5062404;28;20219;-64
2023/03/27 08:43:42;;;;;;;7.93;2.27;;;;;;;9.66;58.27;100359.28;5077282;28;20943;-65
2023/03/27 08:46:27;;;;;;;10.43;2.47;;;;;;;7.93;67.71;100367.47;5068747;28;20188;-58
2023/03/27 08:48:57;;;;;;;7.90;2.37;;;;;;;7.54;74.78;100371.50;5071851;28;20192;-59
2023/03/27 08:51:40;;;;;;;15.63;2.80;;;;;;;7.55;72.24;100368.06;5062374;28;20228;-62
2023/03/27 08:54:26;;;;;;;9.10;2.67;;;;;;;8.36;72.58;100370.00;5065239;28;21891;-59
2023/03/27 08:56:51;;;;;;;8.27;2.13;;;;;;;9.80;56.85;100368.94;5069357;28;20197;-58
2023/03/27 08:59:20;;;;;;;8.87;2.47;;;;;;;11.35;50.33;100363.81;5070264;28;20185;-58
2023/03/27 09:01:52;;;;;;;7.30;2.57;;;;;;;12.55;45.16;100367.47;5061253;28;20694;-58
2023/03/27 09:04:31;;;;;;;11.10;2.30;;;;;;;13.12;43.87;100368.38;5057870;28;20213;-59
2023/03/27 09:07:00;;;;;;;5.80;2.40;;;;;;;11.41;45.28;100373.78;5069895;28;20180;-59
2023/03/27 09:09:45;;;;;;;7.37;2.00;;;;;;;10.43;47.29;100375.34;5068464;28;20671;-57
2023/03/27 09:12:38;;;;;;;6.03;2.03;;;;;;;10.26;52.21;100371.84;5069151;28;20539;-58
2023/03/27 09:15:15;;;;;;;5.67;1.93;;;;;;;10.85;54.08;100371.53;5066683;28;20196;-58
2023/03/27 09:18:09;;;;;;;6.67;2.00;;;;;;;10.33;52.68;100372.38;5069798;28;20237;-59
2023/03/27 09:20:49;;;;;;;7.73;2.27;;;;;;;10.09;54.84;100377.81;5061763;28;20291;-59
2023/03/27 09:23:22;;;;;;;6.13;2.53;;;;;;;10.22;53.45;100380.63;5068116;28;20279;-59
2023/03/27 09:25:55;;;;;;;7.57;2.40;;;;;;;11.97;48.28;100374.22;5069902;28;20181;-59
2023/03/27 09:28:25;;;;;;;5.80;1.83;;;;;;;14.37;41.08;100364.88;5069719;28;20205;-60
2023/03/27 09:30:51;;;;;;;6.13;1.80;;;;;;;15.92;37.29;100370.63;5061417;28;20310;-59
2023/03/27 09:33:18;;;;;;;6.33;2.03;;;;;;;17.94;33.87;100366.56;5066244;28;20191;-59
2023/03/27 09:35:44;;;;;;;5.10;1.90;;;;;;;18.45;31.12;100359.78;5067920;28;20245;-59
2023/03/27 09:38:25;;;;;;;5.27;2.10;;;;;;;17.79;31.63;100366.00;5070402;28;20188;-59
2023/03/27 09:41:17;;;;;;;5.43;1.80;;;;;;;14.79;36.23;100367.31;5060724;28;20706;-60
2023/03/27 09:43:54;;;;;;;5.77;1.93;;;;;;;13.57;37.02;100381.19;5057752;28;20203;-59
2023/03/27 09:46:22;;;;;;;7.67;2.17;;;;;;;13.07;38.33;100383.34;5074376;28;20200;-59
2023/03/27 09:49:12;;;;;;;4.50;1.70;;;;;;;12.88;40.98;100381.88;5073142;28;20662;-61
2023/03/27 09:51:42;;;;;;;7.10;2.33;;;;;;;11.34;44.51;100403.34;5053721;28;20310;-59
2023/03/27 09:54:13;;;;;;;4.40;1.87;;;;;;;8.97;51.51;100409.44;5070970;28;20193;-61
2023/03/27 09:56:42;;;;;;;3.77;1.40;;;;;;;6.97;83.98;100429.84;5072321;28;20181;-61
2023/03/27 09:59:18;;;;;;;6.53;1.60;;;;;;;5.84;100.00;100471.63;5072033;28;20197;-62
2023/03/27 10:01:49;;;;;;;5.17;2.00;;;;;;;5.15;100.00;100482.88;5075893;28;20318;-59
2023/03/27 10:04:24;;;;;;;5.40;2.00;;;;;;;4.53;100.00;100486.91;5068550;28;20679;-59
2023/03/27 10:06:58;;;;;;;5.27;1.90;;;;;;;4.02;100.00;100479.59;5073005;28;20188;-61
2023/03/27 10:09:26;;;;;;;4.83;1.60;;;;;;;4.11;100.00;100473.44;5068357;28;20251;-61
2023/03/27 10:12:03;;;;;;;2.40;1.50;;;;;;;4.55;100.00;100461.41;5054340;28;20251;-61
2023/03/27 10:14:33;;;;;;;4.72;1.52;;;;;;;4.95;100.00;100464.69;5061987;28;20560;-59
2023/03/27 10:17:05;;;;;;;2.67;1.10;;;;;;;5.33;100.00;100462.84;5075767;28;20188;-63
2023/03/27 10:19:37;;;;;;;2.23;1.20;;;;;;;5.69;100.00;100459.31;5059933;28;20221;-61
2023/03/27 10:22:17;;;;;;;2.00;1.00;;;;;;;5.46;100.00;100466.75;5064602;28;20274;-59
2023/03/27 10:24:45;;;;;;;2.80;1.23;;;;;;;6.69;100.00;100463.16;5073814;28;20202;-60
2023/03/27 10:27:17;;;;;;;1.53;0.80;;;;;;;9.06;100.00;100462.09;5073265;28;20647;-61
2023/03/27 10:29:43;;;;;;;1.10;0.77;;;;;;;11.70;90.90;100454.66;5072816;28;20185;-58
2023/03/27 10:32:08;;;;;;;2.10;1.20;;;;;;;14.06;75.02;100454.00;5067955;28;20250;-59
2023/03/27 10:34:37;;;;;;;1.27;0.70;;;;;;;14.63;63.83;100448.56;5071023;28;20181;-58
2023/03/27 10:37:29;;;;;;;1.80;1.00;;;;;;;12.62;66.73;100454.84;5068919;28;20188;-59
2023/03/27 10:39:58;;;;;;;3.00;1.10;;;;;;;11.45;81.53;100452.59;5072493;28;20268;-58
2023/03/27 10:42:30;;;;;;;3.90;1.50;;;;;;;9.43;95.69;100458.75;5061845;28;20224;-59
2023/03/27 10:44:56;;;;;;;3.10;1.30;;;;;;;8.90;100.00;100456.75;5073880;28;20184;-60
2023/03/27 10:47:30;;;;;;;6.30;1.80;;;;;;;7.65;92.98;100450.44;5072179;28;20188;-60
2023/03/27 10:50:07;;;;;;;3.90;1.70;;;;;;;7.31;100.00;100453.41;5067618;28;20278;-60
2023/03/27 10:53:00;;;;;;;2.57;1.57;;;;;;;7.20;100.00;100441.81;5044500;28;20425;-60
2023/03/27 10:55:35;;;;;;;6.13;1.60;;;;;;;7.51;100.00;100435.59;5066085;28;20182;-60
2023/03/27 10:58:12;;;;;;;3.10;1.63;;;;;;;7.37;100.00;100435.28;5064836;28;20208;-58
2023/03/27 11:00:45;;;;;;;4.33;1.90;;;;;;;7.35;100.00;100432.75;5041926;28;20223;-59
2023/03/27 11:03:22;;;;;;;3.50;1.83;;;;;;;7.33;100.00;100434.53;5048207;28;20601;-60
2023/03/27 11:05:52;;;;;;;2.50;1.57;;;;;;;7.46;100.00;100434.09;5074089;28;20186;-61
2023/03/27 11:08:26;;;;;;;5.00;1.63;;;;;;;7.94;100.00;100438.28;5040554;28;20237;-59
2023/03/27 11:10:56;;;;;;;5.03;1.90;;;;;;;8.45;100.00;100443.19;5047384;28;20534;-60
2023/03/27 11:13:28;;;;;;;5.33;1.60;;;;;;;8.85;100.00;100439.81;5071025;28;20244;-59
2023/03/27 11:16:15;;;;;;;2.97;1.80;;;;;;;9.23;100.00;100435.69;5037710;28;20224;-59
2023/03/27 11:18:50;;;;;;;3.43;1.90;;;;;;;9.37;100.00;100441.06;5047648;28;20185;-59
2023/03/27 11:21:35;;;;;;;5.53;2.10;;;;;;;9.25;98.91;100431.31;5062284;28;20677;-58
2023/03/27 11:24:02;;;;;;;4.83;2.00;;;;;;;9.41;97.27;100427.16;5059660;28;20185;-57
2023/03/27 11:26:52;;;;;;;3.73;2.07;;;;;;;9.52;94.47;100437.78;5052649;28;20185;-56
2023/03/27 11:29:24;;;;;;;3.43;1.97;;;;;;;9.81;82.56;100435.66;5049498;28;20671;-58
2023/03/27 11:31:52;;;;;;;3.50;1.90;;;;;;;9.37;91.37;100467.53;5042630;28;20644;-57
2023/03/27 11:34:27;;;;;;;3.07;1.47;;;;;;;8.31;80.34;100469.34;5054963;28;20269;-60
2023/03/27 11:36:59;;;;;;;1.43;1.10;;;;;;;6.40;95.07;100465.75;5047424;28;20230;-59
2023/03/27 11:39:28;;;;;;;2.40;1.57;;;;;;;6.02;100.00;100467.75;5043025;28;20277;-58
2023/03/27 11:41:57;;;;;;;2.30;1.53;;;;;;;5.88;100.00;100465.56;5054824;28;20227;-65